Time;durP1;ratioP1;P1;durP2;ratioP2;P2;SDS_P1;SDS_P2;PMS_P1;PMS_P2;Temp;Humidity;BMP_temperature;BMP_pressure;BME280_temperature;BME280_humidity;BME280_pressure;Samples;Min_cycle;Max_cycle;Signal;HPM_P1;HPM_P2
2021/08/22 08:10:06;;;;;;;6.07;5.03;;;21.20;99.90;;;;;;5096282;27;20596;-75
2021/08/22 08:12:33;;;;;;;5.63;5.03;;;21.10;99.90;;;;;;5102700;28;20438;-75
2021/08/22 08:15:00;;;;;;;7.30;5.37;;;21.00;99.90;;;;;;5098943;28;20441;-77
2021/08/22 08:17:27;;;;;;;6.03;4.70;;;21.10;99.90;;;;;;5095093;28;20443;-76
2021/08/22 08:19:54;;;;;;;6.50;5.63;;;21.00;99.90;;;;;;5106911;28;20435;-77
2021/08/22 08:22:23;;;;;;;6.30;5.07;;;21.00;99.90;;;;;;5103935;28;20455;-77
2021/08/22 08:24:50;;;;;;;6.37;5.77;;;21.00;99.90;;;;;;5107532;28;20435;-78
2021/08/22 08:27:19;;;;;;;5.43;4.90;;;20.90;99.90;;;;;;5104100;28;20529;-77
2021/08/22 08:29:45;;;;;;;5.70;4.90;;;20.90;99.90;;;;;;5095991;28;20997;-76
2021/08/22 08:32:12;;;;;;;4.83;4.33;;;20.80;99.90;;;;;;5104680;28;20451;-77
2021/08/22 08:34:39;;;;;;;4.93;4.53;;;20.70;99.90;;;;;;5107502;28;20435;-76
2021/08/22 08:37:06;;;;;;;4.50;4.10;;;20.60;99.90;;;;;;5105060;28;20454;-75
2021/08/22 08:39:33;;;;;;;4.43;4.03;;;20.70;99.90;;;;;;5103260;28;20454;-74
2021/08/22 08:42:17;;;;;;;5.60;5.10;;;20.60;99.90;;;;;;5098004;28;20529;-76
2021/08/22 08:44:44;;;;;;;6.37;4.60;;;20.60;99.90;;;;;;5087354;28;20811;-77
2021/08/22 08:47:12;;;;;;;5.57;5.00;;;20.60;99.90;;;;;;5094744;28;20455;-75
2021/08/22 08:49:41;;;;;;;6.73;4.70;;;20.60;99.90;;;;;;5106729;28;20482;-76
2021/08/22 08:52:12;;;;;;;5.30;4.80;;;20.70;99.90;;;;;;5094276;28;20458;-76
2021/08/22 08:54:39;;;;;;;5.50;5.00;;;20.70;99.90;;;;;;5104237;28;20419;-77
2021/08/22 08:57:06;;;;;;;7.23;6.23;;;20.80;99.90;;;;;;5104642;28;20427;-75
2021/08/22 08:59:34;;;;;;;6.77;6.17;;;20.80;99.90;;;;;;5088925;28;20447;-77
2021/08/22 09:02:02;;;;;;;7.40;6.73;;;20.90;99.90;;;;;;5089159;28;20474;-77
2021/08/22 09:04:31;;;;;;;6.73;6.10;;;21.00;99.90;;;;;;5108386;28;20485;-77
2021/08/22 09:07:28;;;;;;;7.50;6.67;;;21.10;99.90;;;;;;5109509;28;20792;-76
2021/08/22 09:10:24;;;;;;;5.90;5.10;;;21.20;99.90;;;;;;5120222;28;20797;-76
2021/08/22 09:13:20;;;;;;;5.70;5.10;;;21.30;99.90;;;;;;5115571;28;20495;-76
2021/08/22 09:16:17;;;;;;;6.23;5.57;;;21.40;99.90;;;;;;5105663;28;20445;-76
2021/08/22 09:19:13;;;;;;;7.03;6.13;;;21.50;99.90;;;;;;5125600;27;20442;-76
2021/08/22 09:22:10;;;;;;;8.37;6.17;;;21.50;99.90;;;;;;5099434;28;20498;-76
2021/08/22 09:25:06;;;;;;;6.23;5.63;;;21.50;99.90;;;;;;5101203;28;20435;-76
2021/08/22 09:28:03;;;;;;;5.87;5.27;;;21.50;99.90;;;;;;5112152;27;20454;-77
2021/08/22 09:30:59;;;;;;;8.73;6.37;;;21.60;99.90;;;;;;5110658;27;20474;-74
2021/08/22 09:33:56;;;;;;;4.97;4.53;;;21.70;99.90;;;;;;5113804;28;20450;-75
2021/08/22 09:36:52;;;;;;;6.53;5.67;;;21.70;99.90;;;;;;5101833;28;20442;-75
2021/08/22 09:39:43;;;;;;;5.63;5.13;;;21.80;99.90;;;;;;5092390;28;20455;-75
2021/08/22 09:42:40;;;;;;;6.20;5.60;;;21.80;99.90;;;;;;5094028;28;20877;-75
2021/08/22 09:45:36;;;;;;;5.73;5.20;;;21.90;99.90;;;;;;5097488;28;20473;-75
2021/08/22 09:48:33;;;;;;;9.60;6.27;;;22.00;99.90;;;;;;5093103;28;20796;-75
2021/08/22 09:51:29;;;;;;;5.70;5.03;;;22.00;99.90;;;;;;5083223;28;20828;-75
2021/08/22 09:54:26;;;;;;;5.50;5.00;;;22.00;99.90;;;;;;5107791;28;20443;-75
2021/08/22 09:57:22;;;;;;;5.60;5.00;;;22.10;99.90;;;;;;5080742;28;20443;-78
2021/08/22 10:00:19;;;;;;;5.40;4.90;;;22.10;99.90;;;;;;5080435;28;20459;-81
2021/08/22 10:03:08;;;;;;;6.27;5.37;;;22.10;99.90;;;;;;5100187;28;20439;-82
2021/08/22 10:05:53;;;;;;;5.70;5.20;;;22.10;99.90;;;;;;5116148;27;20450;-81
2021/08/22 10:08:28;;;;;;;7.40;5.37;;;22.20;99.90;;;;;;5107900;28;20962;-79
2021/08/22 10:10:58;;;;;;;4.93;4.43;;;22.10;99.90;;;;;;5109463;28;20474;-82
2021/08/22 10:13:25;;;;;;;5.80;5.13;;;22.10;99.90;;;;;;5113312;28;20445;-82
2021/08/22 10:15:52;;;;;;;4.53;4.20;;;22.10;99.90;;;;;;5098127;28;20597;-82
2021/08/22 10:18:23;;;;;;;5.63;5.03;;;22.10;99.90;;;;;;5098652;28;20459;-81
2021/08/22 10:20:54;;;;;;;5.43;4.93;;;22.10;99.90;;;;;;5087272;28;20496;-81
2021/08/22 10:23:59;;;;;;;8.87;5.90;;;22.10;99.90;;;;;;5110827;28;20438;-81
2021/08/22 10:26:58;;;;;;;7.17;5.20;;;22.20;99.90;;;;;;5092422;28;20909;-81
2021/08/22 10:29:27;;;;;;;6.27;5.40;;;22.30;99.90;;;;;;5111005;28;20477;-82
2021/08/22 10:35:36;;;;;;;5.17;4.67;;;22.40;99.90;;;;;;5099584;27;20430;-82
2021/08/22 10:38:20;;;;;;;5.30;4.80;;;22.50;99.90;;;;;;5079485;28;20459;-80
2021/08/22 10:40:47;;;;;;;5.13;4.63;;;22.60;99.90;;;;;;5087575;28;20533;-82
2021/08/22 10:43:31;;;;;;;6.23;4.73;;;22.60;99.90;;;;;;5092927;28;20462;-80
2021/08/22 10:45:59;;;;;;;6.70;4.40;;;22.60;99.90;;;;;;5116359;27;20816;-82
2021/08/22 10:48:55;;;;;;;6.23;4.63;;;22.60;99.90;;;;;;5092276;28;20435;-82
2021/08/22 10:51:25;;;;;;;4.47;4.07;;;22.70;99.90;;;;;;5119030;27;20506;-81
2021/08/22 10:54:21;;;;;;;5.43;4.13;;;22.70;99.90;;;;;;5105403;28;20459;-80
2021/08/22 10:56:48;;;;;;;4.67;3.80;;;22.70;99.90;;;;;;5098738;28;20919;-81
2021/08/22 10:59:15;;;;;;;4.03;3.63;;;22.80;99.90;;;;;;5097564;28;20459;-81
2021/08/22 11:01:43;;;;;;;4.47;4.07;;;22.80;99.90;;;;;;5109133;28;20549;-81
2021/08/22 11:04:12;;;;;;;4.40;4.00;;;22.80;99.90;;;;;;5102279;28;20453;-80
2021/08/22 11:06:54;;;;;;;4.63;3.50;;;22.90;99.90;;;;;;5075290;28;20956;-81
2021/08/22 11:09:35;;;;;;;4.17;3.57;;;22.80;99.90;;;;;;5079405;28;20478;-81
2021/08/22 11:12:02;;;;;;;9.07;3.77;;;22.80;99.90;;;;;;5074459;28;20636;-79
2021/08/22 11:14:29;;;;;;;5.90;4.57;;;22.80;99.90;;;;;;5073352;28;20441;-80
2021/08/22 11:16:59;;;;;;;6.70;3.73;;;22.80;99.90;;;;;;5094421;28;20431;-80
2021/08/22 11:19:26;;;;;;;3.80;3.30;;;22.80;99.90;;;;;;5077637;28;20462;-79
2021/08/22 11:21:54;;;;;;;5.93;3.40;;;22.80;99.90;;;;;;5073004;28;20483;-80
2021/08/22 11:24:21;;;;;;;4.23;3.83;;;22.80;99.90;;;;;;5081754;28;20471;-81
2021/08/22 11:26:59;;;;;;;4.17;3.77;;;22.90;99.90;;;;;;5072593;28;20463;-80
2021/08/22 11:29:26;;;;;;;6.30;3.97;;;22.90;99.90;;;;;;5082889;28;20845;-81
2021/08/22 11:32:02;;;;;;;4.73;3.70;;;23.00;99.90;;;;;;5103232;28;20447;-81
2021/08/22 11:34:35;;;;;;;4.67;4.13;;;23.00;99.90;;;;;;5090431;28;20443;-79
2021/08/22 11:37:20;;;;;;;6.07;4.73;;;22.90;99.90;;;;;;5084167;28;20470;-82
2021/08/22 11:39:47;;;;;;;7.07;3.83;;;23.00;99.90;;;;;;5073905;28;20459;-80
2021/08/22 11:42:20;;;;;;;5.37;4.20;;;23.10;99.90;;;;;;5082297;28;20456;-81
2021/08/22 11:44:49;;;;;;;9.10;4.67;;;23.10;99.90;;;;;;5093145;28;20518;-81
2021/08/22 11:47:22;;;;;;;4.80;4.30;;;23.10;99.90;;;;;;5083666;28;20454;-80
2021/08/22 11:49:49;;;;;;;5.50;3.70;;;23.20;99.90;;;;;;5083970;28;20558;-81
2021/08/22 11:52:28;;;;;;;4.23;3.50;;;23.20;99.90;;;;;;5091102;28;20962;-80
2021/08/22 11:54:55;;;;;;;6.43;3.80;;;23.20;99.90;;;;;;5086652;28;20456;-81
2021/08/22 11:57:23;;;;;;;5.83;3.70;;;23.20;99.90;;;;;;5087675;28;20452;-81
2021/08/22 12:00:06;;;;;;;4.90;3.47;;;23.10;99.90;;;;;;5085001;28;20447;-82
2021/08/22 12:02:33;;;;;;;5.83;3.40;;;23.10;99.90;;;;;;5077028;28;20460;-81
2021/08/22 12:05:15;;;;;;;5.37;3.60;;;23.10;99.90;;;;;;5078966;28;20490;-81
2021/08/22 12:07:45;;;;;;;4.83;3.63;;;23.10;99.90;;;;;;5086437;28;20458;-78
2021/08/22 12:10:21;;;;;;;4.30;3.63;;;23.10;99.90;;;;;;5069550;28;20510;-82
2021/08/22 12:12:48;;;;;;;5.73;3.60;;;23.10;99.90;;;;;;5058045;28;20443;-80
2021/08/22 12:15:17;;;;;;;4.00;3.40;;;23.10;99.90;;;;;;5066014;28;20428;-80
2021/08/22 12:17:45;;;;;;;3.33;2.83;;;23.10;99.90;;;;;;5062135;28;20460;-81
2021/08/22 12:20:18;;;;;;;5.03;3.57;;;23.10;99.90;;;;;;5067895;28;20475;-82
2021/08/22 12:23:03;;;;;;;5.93;3.23;;;23.10;99.90;;;;;;5088079;28;20454;-81
2021/08/22 12:25:30;;;;;;;4.50;3.70;;;23.00;99.90;;;;;;5045240;28;20472;-81
2021/08/22 12:28:20;;;;;;;4.33;3.80;;;23.00;99.90;;;;;;5055686;28;20453;-80
2021/08/22 12:30:49;;;;;;;5.50;3.70;;;23.00;99.90;;;;;;5061685;28;20480;-79
2021/08/22 12:33:31;;;;;;;5.50;3.80;;;23.10;99.90;;;;;;5065489;28;20451;-80
2021/08/22 12:36:07;;;;;;;5.40;3.30;;;23.10;99.90;;;;;;5064060;28;20440;-80
2021/08/22 12:38:37;;;;;;;4.70;3.43;;;23.10;99.90;;;;;;5050617;28;20464;-82
2021/08/22 12:41:27;;;;;;;6.67;3.70;;;23.10;99.90;;;;;;5059700;28;20555;-79
2021/08/22 12:43:56;;;;;;;6.07;3.67;;;23.10;99.90;;;;;;5058942;28;20545;-84
2021/08/22 12:46:25;;;;;;;4.90;3.60;;;23.20;99.90;;;;;;5061974;28;20444;-79
2021/08/22 12:48:52;;;;;;;4.73;3.27;;;23.30;99.90;;;;;;5059226;28;20461;-82
2021/08/22 12:51:20;;;;;;;5.50;3.30;;;23.30;99.90;;;;;;5061683;28;20488;-82
2021/08/22 12:53:49;;;;;;;4.93;3.70;;;23.40;99.90;;;;;;5062120;28;21007;-81
2021/08/22 12:56:16;;;;;;;4.90;3.77;;;23.40;99.90;;;;;;5060136;28;20539;-83
2021/08/22 12:58:43;;;;;;;3.83;2.97;;;23.50;99.90;;;;;;5062618;28;20452;-79
2021/08/22 13:01:10;;;;;;;4.27;3.33;;;23.50;99.90;;;;;;5069540;28;21691;-83
2021/08/22 13:03:37;;;;;;;3.60;3.10;;;23.50;99.90;;;;;;5066953;28;20460;-80
2021/08/22 13:06:04;;;;;;;6.70;3.37;;;23.50;99.90;;;;;;5050442;28;20460;-81
2021/08/22 13:08:31;;;;;;;3.70;2.83;;;23.50;99.90;;;;;;5061841;28;20471;-82
2021/08/22 13:11:00;;;;;;;5.47;3.40;;;23.40;99.90;;;;;;5113355;28;20490;-79
2021/08/22 13:13:27;;;;;;;6.60;3.33;;;23.40;99.90;;;;;;5115473;28;20549;-83
2021/08/22 13:15:54;;;;;;;4.07;3.60;;;23.30;99.90;;;;;;5103759;28;20926;-80
2021/08/22 13:18:20;;;;;;;5.87;3.40;;;23.30;99.90;;;;;;5115802;28;20443;-83
2021/08/22 13:20:47;;;;;;;5.70;3.27;;;23.30;99.90;;;;;;5110972;27;20477;-79
2021/08/22 13:23:15;;;;;;;4.03;3.17;;;23.30;99.90;;;;;;5110517;28;20914;-78
2021/08/22 13:25:42;;;;;;;5.10;3.60;;;23.30;99.90;;;;;;5085265;28;20519;-78
2021/08/22 13:28:11;;;;;;;7.63;3.77;;;23.20;99.90;;;;;;5092412;28;20450;-79
2021/08/22 13:30:38;;;;;;;8.17;3.70;;;23.20;99.90;;;;;;5095675;28;20517;-79
2021/08/22 13:33:05;;;;;;;5.47;3.53;;;23.00;99.90;;;;;;5078441;28;20442;-81
2021/08/22 13:35:32;;;;;;;6.03;3.70;;;23.10;99.90;;;;;;5101412;28;20439;-82
2021/08/22 13:37:59;;;;;;;6.50;3.13;;;22.90;99.90;;;;;;5097012;28;20461;-79
2021/08/22 13:40:26;;;;;;;3.90;3.30;;;22.80;99.90;;;;;;5115713;28;20450;-78
2021/08/22 13:42:54;;;;;;;4.93;3.10;;;22.80;99.90;;;;;;5104069;28;21870;-80
2021/08/22 13:45:22;;;;;;;6.80;3.53;;;22.70;99.90;;;;;;5110022;28;20437;-81
2021/08/22 13:47:49;;;;;;;4.80;3.20;;;22.70;99.90;;;;;;5111077;28;20430;-78
2021/08/22 13:50:16;;;;;;;4.43;2.97;;;22.60;99.90;;;;;;5093133;28;21031;-79
2021/08/22 13:52:44;;;;;;;3.23;2.60;;;22.50;99.90;;;;;;5093314;28;20440;-82
2021/08/22 13:55:12;;;;;;;4.73;3.00;;;22.40;99.90;;;;;;5095948;28;20851;-83
2021/08/22 13:57:39;;;;;;;3.00;2.70;;;22.40;99.90;;;;;;5112139;28;20947;-78
2021/08/22 14:00:08;;;;;;;3.80;2.70;;;22.40;99.90;;;;;;5097309;28;20454;-81
2021/08/22 14:02:36;;;;;;;5.47;3.60;;;22.40;99.90;;;;;;5086356;28;20451;-79
2021/08/22 14:05:07;;;;;;;3.90;2.90;;;22.40;99.90;;;;;;5096478;28;20478;-83
2021/08/22 14:07:34;;;;;;;4.20;3.30;;;22.40;99.90;;;;;;5095269;28;20443;-79
2021/08/22 14:10:00;;;;;;;5.03;3.07;;;22.40;99.90;;;;;;5126646;27;20829;-80
2021/08/22 14:12:28;;;;;;;4.43;3.10;;;22.40;99.90;;;;;;5102153;27;21002;-80
2021/08/22 14:14:55;;;;;;;3.73;3.30;;;22.40;99.90;;;;;;5113829;28;20927;-79
2021/08/22 14:17:22;;;;;;;5.27;3.60;;;22.40;99.90;;;;;;5104818;28;20431;-80
2021/08/22 14:19:50;;;;;;;4.50;3.17;;;22.50;99.90;;;;;;5092462;28;20879;-81
2021/08/22 14:22:18;;;;;;;3.50;3.03;;;22.60;99.90;;;;;;5091993;28;20494;-79
2021/08/22 14:24:45;;;;;;;4.17;3.33;;;22.60;99.90;;;;;;5082581;28;20481;-80
2021/08/22 14:27:12;;;;;;;3.07;2.50;;;22.60;99.90;;;;;;5094210;28;20449;-81
2021/08/22 14:29:40;;;;;;;4.83;3.70;;;22.60;99.90;;;;;;5104009;28;20465;-78
2021/08/22 14:32:08;;;;;;;5.77;3.00;;;22.60;99.90;;;;;;5107741;28;20457;-79
2021/08/22 14:34:35;;;;;;;3.80;2.60;;;22.60;99.90;;;;;;5082455;28;20442;-77
2021/08/22 14:37:03;;;;;;;4.20;2.77;;;22.60;99.90;;;;;;5099432;28;20454;-79
2021/08/22 14:39:31;;;;;;;3.33;3.03;;;22.70;99.90;;;;;;5112421;28;21005;-81
2021/08/22 14:42:00;;;;;;;4.23;3.10;;;22.70;99.90;;;;;;5094200;28;20868;-81
2021/08/22 14:44:27;;;;;;;3.60;2.90;;;22.60;99.90;;;;;;5077434;28;20456;-80
2021/08/22 14:46:54;;;;;;;3.67;2.60;;;22.60;99.90;;;;;;5092664;28;20550;-79
2021/08/22 14:49:21;;;;;;;2.63;2.43;;;22.60;99.90;;;;;;5092915;28;20954;-80
2021/08/22 14:51:48;;;;;;;3.13;2.83;;;22.60;99.90;;;;;;5101311;28;20582;-80
2021/08/22 14:54:16;;;;;;;3.13;2.57;;;22.60;99.90;;;;;;5110493;28;20421;-80
2021/08/22 14:56:44;;;;;;;4.30;2.60;;;22.70;99.90;;;;;;5095671;28;20455;-83
2021/08/22 14:59:10;;;;;;;3.63;2.73;;;22.70;99.90;;;;;;5109570;28;20457;-81
2021/08/22 15:01:37;;;;;;;3.93;2.73;;;22.70;99.90;;;;;;5100655;28;20470;-77
2021/08/22 15:04:04;;;;;;;3.47;2.93;;;22.70;99.90;;;;;;5102126;28;20450;-82
2021/08/22 15:06:31;;;;;;;4.23;2.80;;;22.70;99.90;;;;;;5111870;28;20951;-80
2021/08/22 15:08:58;;;;;;;2.70;2.50;;;22.80;99.90;;;;;;5103458;28;20594;-78
2021/08/22 15:11:26;;;;;;;2.40;2.20;;;22.70;99.90;;;;;;5105871;28;20497;-80
2021/08/22 15:13:54;;;;;;;3.40;2.50;;;22.70;99.90;;;;;;5093586;28;20454;-81
2021/08/22 15:16:20;;;;;;;3.60;2.33;;;22.70;99.90;;;;;;5102697;28;20451;-82
2021/08/22 15:18:47;;;;;;;4.17;2.70;;;22.70;99.90;;;;;;5100784;28;20450;-82
2021/08/22 15:21:14;;;;;;;2.70;2.20;;;22.60;99.90;;;;;;5112001;28;20457;-81
2021/08/22 15:23:41;;;;;;;6.47;3.30;;;22.60;99.90;;;;;;5100181;28;20465;-78
2021/08/22 15:26:08;;;;;;;4.37;3.10;;;22.60;99.90;;;;;;5111187;28;20423;-82
2021/08/22 15:28:36;;;;;;;7.87;2.80;;;22.60;99.90;;;;;;5108245;28;20453;-78
2021/08/22 15:31:04;;;;;;;3.60;2.60;;;22.70;99.90;;;;;;5113436;28;20489;-80
2021/08/22 15:33:32;;;;;;;3.17;2.57;;;22.60;99.90;;;;;;5111908;28;20485;-83
2021/08/22 15:35:59;;;;;;;3.10;2.80;;;22.60;99.90;;;;;;5093047;28;20895;-83
2021/08/22 15:38:26;;;;;;;4.33;2.73;;;22.60;99.90;;;;;;5095806;28;20466;-77
2021/08/22 15:40:53;;;;;;;3.87;2.83;;;22.60;99.90;;;;;;5107654;28;20469;-80
2021/08/22 15:43:20;;;;;;;3.97;2.73;;;22.70;99.90;;;;;;5101672;28;20958;-78
2021/08/22 15:45:48;;;;;;;3.60;2.70;;;22.60;99.90;;;;;;5096895;28;20443;-76
2021/08/22 15:48:15;;;;;;;2.87;2.47;;;22.60;99.90;;;;;;5108683;28;20482;-83
2021/08/22 15:50:43;;;;;;;4.00;2.60;;;22.60;99.90;;;;;;5100217;28;20485;-75
2021/08/22 15:53:11;;;;;;;3.97;2.50;;;22.60;99.90;;;;;;5105883;28;20461;-79
2021/08/22 15:55:38;;;;;;;3.67;2.93;;;22.50;99.90;;;;;;5095578;28;20461;-77
2021/08/22 15:58:05;;;;;;;3.90;2.77;;;22.50;99.90;;;;;;5091278;28;20811;-82
2021/08/22 16:00:34;;;;;;;5.17;2.73;;;22.40;99.90;;;;;;5108422;28;20471;-77
2021/08/22 16:03:05;;;;;;;3.10;2.17;;;22.30;99.90;;;;;;5107036;28;20915;-79
2021/08/22 16:05:33;;;;;;;2.60;2.40;;;22.20;99.90;;;;;;5094432;28;20458;-80
2021/08/22 16:08:00;;;;;;;4.77;2.50;;;22.10;99.90;;;;;;5090709;28;20450;-82
2021/08/22 16:10:27;;;;;;;3.13;2.43;;;22.00;99.90;;;;;;5106989;28;20490;-81
2021/08/22 16:12:54;;;;;;;3.33;2.37;;;21.90;99.90;;;;;;5095760;28;20455;-80
2021/08/22 16:15:22;;;;;;;6.60;2.70;;;21.90;99.90;;;;;;5109554;28;20457;-82
2021/08/22 16:17:49;;;;;;;3.70;2.60;;;21.80;99.90;;;;;;5105909;28;20795;-78
2021/08/22 16:20:18;;;;;;;3.33;2.70;;;21.80;99.90;;;;;;5087261;28;20475;-79
2021/08/22 16:22:45;;;;;;;4.77;3.00;;;21.80;99.90;;;;;;5102972;28;20442;-78
2021/08/22 16:25:13;;;;;;;3.70;2.80;;;21.80;99.90;;;;;;5106500;28;20462;-80
2021/08/22 16:27:40;;;;;;;3.33;2.40;;;21.70;99.90;;;;;;5098791;28;20450;-79
2021/08/22 16:30:08;;;;;;;4.17;2.73;;;21.60;99.90;;;;;;5108497;28;20961;-80
2021/08/22 16:32:35;;;;;;;3.37;2.70;;;21.60;99.90;;;;;;5103798;28;20442;-79
2021/08/22 16:35:02;;;;;;;2.70;2.47;;;21.60;99.90;;;;;;5092765;28;20541;-78
2021/08/22 16:37:31;;;;;;;3.87;2.93;;;21.60;99.90;;;;;;5106499;28;20430;-79
2021/08/22 16:39:58;;;;;;;3.10;2.40;;;21.60;99.90;;;;;;5112187;28;20478;-77
2021/08/22 16:42:25;;;;;;;3.67;3.00;;;21.60;99.90;;;;;;5113797;28;20458;-77
2021/08/22 16:44:51;;;;;;;2.87;2.67;;;21.50;99.90;;;;;;5109361;28;20454;-78
2021/08/22 16:47:18;;;;;;;2.87;2.67;;;21.50;99.90;;;;;;5112334;28;20449;-81
2021/08/22 16:49:46;;;;;;;3.77;2.40;;;21.60;99.90;;;;;;5114889;27;20438;-80
2021/08/22 16:52:13;;;;;;;2.50;2.20;;;21.50;99.90;;;;;;5095135;28;20565;-78
2021/08/22 16:54:41;;;;;;;4.53;2.70;;;21.60;99.90;;;;;;5112441;28;20792;-78
2021/08/22 16:57:08;;;;;;;2.57;2.17;;;21.50;99.90;;;;;;5109309;28;20447;-79
2021/08/22 16:59:35;;;;;;;2.97;2.30;;;21.50;99.90;;;;;;5111182;28;20941;-80
2021/08/22 17:02:02;;;;;;;3.30;3.00;;;21.50;99.90;;;;;;5112862;28;20927;-79
2021/08/22 17:04:29;;;;;;;3.10;2.50;;;21.50;99.90;;;;;;5094093;28;20463;-78
2021/08/22 17:06:56;;;;;;;2.63;2.43;;;21.50;99.90;;;;;;5106825;28;20465;-78
2021/08/22 17:09:23;;;;;;;4.00;3.00;;;21.50;99.90;;;;;;5114336;28;20462;-78
2021/08/22 17:11:51;;;;;;;3.43;3.03;;;21.50;99.90;;;;;;5101506;28;21002;-79
2021/08/22 17:14:18;;;;;;;3.97;3.30;;;21.50;99.90;;;;;;5109045;28;20450;-81
2021/08/22 17:16:45;;;;;;;4.33;3.43;;;21.40;99.90;;;;;;5093770;28;20478;-79
2021/08/22 17:19:12;;;;;;;5.43;3.70;;;21.40;99.90;;;;;;5099264;28;20455;-82
2021/08/22 17:21:39;;;;;;;3.90;3.43;;;21.40;99.90;;;;;;5114576;28;20810;-78
2021/08/22 17:24:06;;;;;;;3.37;2.93;;;21.20;99.90;;;;;;5111899;28;20455;-78
2021/08/22 17:26:33;;;;;;;6.07;3.40;;;21.20;99.90;;;;;;5101448;28;20453;-80
2021/08/22 17:29:02;;;;;;;3.40;3.10;;;21.20;99.90;;;;;;5116873;28;20435;-78
2021/08/22 17:31:29;;;;;;;3.33;3.00;;;21.10;99.90;;;;;;5112556;28;20582;-79
2021/08/22 17:33:56;;;;;;;4.37;3.80;;;21.00;99.90;;;;;;5103625;28;20442;-81
2021/08/22 17:36:22;;;;;;;5.80;3.40;;;21.00;99.90;;;;;;5109435;28;20433;-79
2021/08/22 17:38:49;;;;;;;4.30;3.53;;;21.00;99.90;;;;;;5103038;28;20835;-80
2021/08/22 17:41:16;;;;;;;6.30;3.70;;;20.90;99.90;;;;;;5098275;28;20470;-80
2021/08/22 17:43:43;;;;;;;4.53;3.80;;;20.80;99.90;;;;;;5113920;28;20437;-80
2021/08/22 17:46:11;;;;;;;3.30;2.70;;;20.80;99.90;;;;;;5112935;28;20455;-79
2021/08/22 17:48:40;;;;;;;3.90;3.47;;;20.70;99.90;;;;;;5104092;28;20466;-79
2021/08/22 17:51:07;;;;;;;3.43;3.13;;;20.70;99.90;;;;;;5104085;28;20581;-86
2021/08/22 17:53:34;;;;;;;3.60;3.30;;;20.70;99.90;;;;;;5114221;28;20439;-78
2021/08/22 17:56:01;;;;;;;4.03;3.00;;;20.60;99.90;;;;;;5100786;28;20830;-80
2021/08/22 17:58:28;;;;;;;3.90;3.50;;;20.70;99.90;;;;;;5102714;28;20446;-83
2021/08/22 18:00:55;;;;;;;6.07;3.50;;;20.70;99.90;;;;;;5101654;28;21018;-79
2021/08/22 18:03:23;;;;;;;4.40;3.47;;;20.60;99.90;;;;;;5089212;28;20455;-81
2021/08/22 18:05:51;;;;;;;3.93;3.50;;;20.60;99.90;;;;;;5111317;28;20811;-77
2021/08/22 18:08:18;;;;;;;3.47;3.17;;;20.50;99.90;;;;;;5110548;28;20482;-81
2021/08/22 18:10:45;;;;;;;3.40;3.10;;;20.50;99.90;;;;;;5094521;28;20979;-79
2021/08/22 18:13:13;;;;;;;4.63;3.23;;;20.50;99.90;;;;;;5110535;28;20942;-78
2021/08/22 18:15:41;;;;;;;2.97;2.77;;;20.40;99.90;;;;;;5110113;28;20448;-80
2021/08/22 18:18:08;;;;;;;3.10;2.80;;;20.30;99.90;;;;;;5074625;28;20435;-79
2021/08/22 18:20:36;;;;;;;3.77;3.37;;;20.30;99.90;;;;;;5097059;28;20971;-78
2021/08/22 18:23:04;;;;;;;3.80;3.20;;;20.30;99.90;;;;;;5105279;28;21071;-78
2021/08/22 18:25:31;;;;;;;5.40;3.67;;;20.20;99.90;;;;;;5089434;28;20458;-79
2021/08/22 18:27:58;;;;;;;3.90;3.43;;;20.20;99.90;;;;;;5095834;28;20467;-78
2021/08/22 18:30:26;;;;;;;4.20;3.80;;;20.20;99.90;;;;;;5110061;28;20463;-79
2021/08/22 18:32:53;;;;;;;3.93;3.10;;;20.10;99.90;;;;;;5108396;28;20493;-80
2021/08/22 18:35:20;;;;;;;3.93;3.63;;;20.00;99.90;;;;;;5076347;28;20511;-78
2021/08/22 18:37:48;;;;;;;4.30;3.90;;;20.00;99.90;;;;;;5104556;28;20433;-79
2021/08/22 18:40:15;;;;;;;4.47;4.07;;;20.00;99.90;;;;;;5109892;28;20473;-78
2021/08/22 18:42:43;;;;;;;5.20;3.70;;;19.90;99.90;;;;;;5097887;28;20467;-79
2021/08/22 18:45:14;;;;;;;3.90;3.60;;;19.90;99.90;;;;;;5125184;27;20921;-78
2021/08/22 18:47:42;;;;;;;4.10;3.70;;;19.90;99.90;;;;;;5100673;28;20459;-79
2021/08/22 18:50:10;;;;;;;4.17;3.80;;;19.80;99.90;;;;;;5096016;28;20478;-78
2021/08/22 18:52:38;;;;;;;4.37;3.97;;;19.80;99.90;;;;;;5088367;28;20972;-78
2021/08/22 18:55:07;;;;;;;4.00;3.60;;;19.80;99.90;;;;;;5107606;28;20434;-78
2021/08/22 18:57:34;;;;;;;5.60;4.03;;;19.70;99.90;;;;;;5069829;28;20452;-79
2021/08/22 19:00:01;;;;;;;4.03;3.60;;;19.70;99.90;;;;;;5092663;28;20814;-80
2021/08/22 19:02:28;;;;;;;4.77;4.20;;;19.70;99.90;;;;;;5097651;28;20541;-80
2021/08/22 19:04:56;;;;;;;3.87;3.30;;;19.60;99.90;;;;;;5098304;28;20455;-78
2021/08/22 19:07:23;;;;;;;3.80;3.40;;;19.60;99.90;;;;;;5087713;28;20879;-78
2021/08/22 19:09:50;;;;;;;4.43;4.00;;;19.60;99.90;;;;;;5095575;28;20453;-80
2021/08/22 19:12:20;;;;;;;4.60;4.20;;;19.60;99.90;;;;;;5094619;28;20486;-78
2021/08/22 19:14:47;;;;;;;4.27;3.50;;;19.50;99.90;;;;;;5099990;28;20510;-79
2021/08/22 19:17:14;;;;;;;4.70;3.57;;;19.60;99.90;;;;;;5107370;28;20454;-78
2021/08/22 19:19:41;;;;;;;4.23;3.83;;;19.50;99.90;;;;;;5106038;28;20796;-79
2021/08/22 19:22:08;;;;;;;3.77;2.97;;;19.50;99.90;;;;;;5109263;28;20943;-80
2021/08/22 19:24:35;;;;;;;6.03;3.30;;;19.50;99.90;;;;;;5099060;28;21116;-79
2021/08/22 19:27:04;;;;;;;4.50;4.10;;;19.50;99.90;;;;;;5091450;28;20440;-79
2021/08/22 19:29:32;;;;;;;4.57;4.17;;;19.40;99.90;;;;;;5082106;28;20816;-78
2021/08/22 19:32:00;;;;;;;5.10;4.60;;;19.40;99.90;;;;;;5104570;28;21292;-81
2021/08/22 19:34:27;;;;;;;5.70;4.43;;;19.40;99.90;;;;;;5093551;28;20443;-79
2021/08/22 19:36:54;;;;;;;5.03;4.03;;;19.40;99.90;;;;;;5111531;28;20441;-78
2021/08/22 19:39:21;;;;;;;4.17;3.77;;;19.40;99.90;;;;;;5107996;28;20940;-80
2021/08/22 19:41:48;;;;;;;4.87;4.13;;;19.30;99.90;;;;;;5103701;28;20454;-79
2021/08/22 19:44:15;;;;;;;6.93;4.60;;;19.30;99.90;;;;;;5109136;28;20458;-80
2021/08/22 19:46:44;;;;;;;4.63;4.23;;;19.30;99.90;;;;;;5108698;28;20931;-79
2021/08/22 19:49:12;;;;;;;5.17;4.67;;;19.30;99.90;;;;;;5109516;28;20837;-78
2021/08/22 19:51:39;;;;;;;4.77;3.80;;;19.20;99.90;;;;;;5098914;28;20889;-79
2021/08/22 19:54:06;;;;;;;6.17;5.20;;;19.20;99.90;;;;;;5110718;28;20462;-80
2021/08/22 19:56:33;;;;;;;4.50;4.10;;;19.20;99.90;;;;;;5110790;28;20442;-80
2021/08/22 19:59:00;;;;;;;6.13;4.67;;;19.20;99.90;;;;;;5096697;28;20432;-79
2021/08/22 20:01:27;;;;;;;4.90;4.50;;;19.10;99.90;;;;;;5108098;28;20436;-78
2021/08/22 20:03:56;;;;;;;5.20;4.70;;;19.10;99.90;;;;;;5102520;28;20443;-79
2021/08/22 20:06:23;;;;;;;6.30;5.17;;;19.00;99.90;;;;;;5106864;28;20438;-79
2021/08/22 20:08:50;;;;;;;8.40;5.50;;;19.00;99.90;;;;;;5107319;28;20497;-79
2021/08/22 20:11:18;;;;;;;6.90;4.67;;;19.00;99.90;;;;;;5106798;28;20462;-79
2021/08/22 20:13:45;;;;;;;4.80;4.40;;;19.00;99.90;;;;;;5097023;28;20442;-78
2021/08/22 20:16:12;;;;;;;7.53;4.53;;;18.90;99.90;;;;;;5102809;28;20431;-78
2021/08/22 20:18:39;;;;;;;4.90;4.40;;;18.90;99.90;;;;;;5106293;28;20453;-79
2021/08/22 20:21:08;;;;;;;7.67;4.90;;;18.90;99.90;;;;;;5089992;28;20515;-79
2021/08/22 20:23:35;;;;;;;6.17;4.90;;;18.90;99.90;;;;;;5105550;28;20427;-78
2021/08/22 20:26:02;;;;;;;4.83;4.43;;;18.80;99.90;;;;;;5089876;28;20903;-79
2021/08/22 20:28:29;;;;;;;6.50;5.10;;;18.80;99.90;;;;;;5088360;28;20456;-76
2021/08/22 20:30:56;;;;;;;5.97;5.10;;;18.80;99.90;;;;;;5089501;28;20467;-78
2021/08/22 20:33:23;;;;;;;5.70;4.47;;;18.80;99.90;;;;;;5103002;28;20464;-79
2021/08/22 20:35:49;;;;;;;12.83;4.77;;;18.70;99.90;;;;;;5111743;28;20448;-78
2021/08/22 20:38:18;;;;;;;5.10;4.60;;;18.70;99.90;;;;;;5084329;28;20432;-78
2021/08/22 20:40:46;;;;;;;4.90;4.40;;;18.70;99.90;;;;;;5106732;28;20470;-78
2021/08/22 20:43:13;;;;;;;6.30;4.30;;;18.70;99.90;;;;;;5086211;28;20687;-79
2021/08/22 20:45:40;;;;;;;6.20;4.90;;;18.70;99.90;;;;;;5093887;28;20990;-80
2021/08/22 20:48:07;;;;;;;5.63;5.13;;;18.60;99.90;;;;;;5109135;28;20778;-80
2021/08/22 20:50:36;;;;;;;5.90;5.00;;;18.60;99.90;;;;;;5092689;28;20442;-79
2021/08/22 20:53:04;;;;;;;5.23;4.70;;;18.60;99.90;;;;;;5123290;27;20484;-81
2021/08/22 20:55:32;;;;;;;5.53;4.80;;;18.60;99.90;;;;;;5115102;28;20446;-81
2021/08/22 20:57:59;;;;;;;5.50;5.00;;;18.60;99.90;;;;;;5109693;28;20425;-80
2021/08/22 21:00:26;;;;;;;4.93;4.43;;;18.60;99.90;;;;;;5107161;28;20470;-79
2021/08/22 21:02:53;;;;;;;5.77;4.33;;;18.50;99.90;;;;;;5105482;28;20447;-80
2021/08/22 21:05:21;;;;;;;4.70;4.30;;;18.50;99.90;;;;;;5110585;28;20449;-80
2021/08/22 21:07:49;;;;;;;4.77;4.30;;;18.50;99.90;;;;;;5088610;28;20978;-79
2021/08/22 21:10:17;;;;;;;5.87;5.23;;;18.50;99.90;;;;;;5093457;28;20433;-80
2021/08/22 21:12:45;;;;;;;5.53;4.17;;;18.50;99.90;;;;;;5108321;28;20467;-80
2021/08/22 21:15:14;;;;;;;4.97;4.57;;;18.50;99.90;;;;;;5097125;28;20444;-80
2021/08/22 21:17:42;;;;;;;7.30;5.30;;;18.50;99.90;;;;;;5110374;28;20431;-78